sensor_id;sensor_type;location;lat;lon;timestamp;temperature;humidity
26103;DHT22;69760;49.380;8.998;2023-10-13T00:00:38;17.20;99.90
26103;DHT22;69760;49.380;8.998;2023-10-13T00:03:06;17.20;99.90
26103;DHT22;69760;49.380;8.998;2023-10-13T00:05:40;17.20;99.90
26103;DHT22;69760;49.380;8.998;2023-10-13T00:08:07;17.20;99.90
26103;DHT22;69760;49.380;8.998;2023-10-13T00:10:33;17.20;99.90
26103;DHT22;69760;49.380;8.998;2023-10-13T00:12:59;17.10;99.90
26103;DHT22;69760;49.380;8.998;2023-10-13T00:15:44;17.20;99.90
26103;DHT22;69760;49.380;8.998;2023-10-13T00:18:29;17.10;99.90
26103;DHT22;69760;49.380;8.998;2023-10-13T00:21:08;17.10;99.90
26103;DHT22;69760;49.380;8.998;2023-10-13T00:23:53;17.10;99.90
26103;DHT22;69760;49.380;8.998;2023-10-13T00:26:26;17.10;99.90
26103;DHT22;69760;49.380;8.998;2023-10-13T00:28:57;17.00;99.90
26103;DHT22;69760;49.380;8.998;2023-10-13T00:31:39;17.00;99.90
26103;DHT22;69760;49.380;8.998;2023-10-13T00:34:11;17.00;99.90
26103;DHT22;69760;49.380;8.998;2023-10-13T00:36:40;17.00;99.90
26103;DHT22;69760;49.380;8.998;2023-10-13T00:39:14;17.00;99.90
26103;DHT22;69760;49.380;8.998;2023-10-13T00:41:42;17.00;99.90
26103;DHT22;69760;49.380;8.998;2023-10-13T00:44:20;17.00;99.90
26103;DHT22;69760;49.380;8.998;2023-10-13T00:46:55;17.00;99.90
26103;DHT22;69760;49.380;8.998;2023-10-13T00:49:22;17.00;99.90
26103;DHT22;69760;49.380;8.998;2023-10-13T00:51:56;17.00;99.90
26103;DHT22;69760;49.380;8.998;2023-10-13T00:54:23;17.00;99.90
26103;DHT22;69760;49.380;8.998;2023-10-13T00:56:54;17.10;99.90
26103;DHT22;69760;49.380;8.998;2023-10-13T00:59:29;17.10;99.90
26103;DHT22;69760;49.380;8.998;2023-10-13T01:01:59;17.10;99.90
26103;DHT22;69760;49.380;8.998;2023-10-13T01:04:48;17.10;99.90
26103;DHT22;69760;49.380;8.998;2023-10-13T01:07:14;17.10;99.90
26103;DHT22;69760;49.380;8.998;2023-10-13T01:09:44;17.10;99.90
26103;DHT22;69760;49.380;8.998;2023-10-13T01:12:13;17.10;99.90
26103;DHT22;69760;49.380;8.998;2023-10-13T01:14:40;17.10;99.90
26103;DHT22;69760;49.380;8.998;2023-10-13T01:17:06;17.10;99.90
26103;DHT22;69760;49.380;8.998;2023-10-13T01:19:36;17.10;99.90
26103;DHT22;69760;49.380;8.998;2023-10-13T01:22:04;17.20;99.90
26103;DHT22;69760;49.380;8.998;2023-10-13T01:24:32;17.20;99.90
26103;DHT22;69760;49.380;8.998;2023-10-13T01:27:01;17.10;99.90
26103;DHT22;69760;49.380;8.998;2023-10-13T01:29:42;17.10;99.90
26103;DHT22;69760;49.380;8.998;2023-10-13T01:32:14;17.10;99.90
26103;DHT22;69760;49.380;8.998;2023-10-13T01:34:39;17.10;99.90
26103;DHT22;69760;49.380;8.998;2023-10-13T01:37:05;17.10;99.90
26103;DHT22;69760;49.380;8.998;2023-10-13T01:39:31;17.10;99.90
26103;DHT22;69760;49.380;8.998;2023-10-13T01:41:57;17.10;99.90
26103;DHT22;69760;49.380;8.998;2023-10-13T01:44:26;17.10;99.90
26103;DHT22;69760;49.380;8.998;2023-10-13T01:47:01;17.10;99.90
26103;DHT22;69760;49.380;8.998;2023-10-13T01:49:33;17.10;99.90
26103;DHT22;69760;49.380;8.998;2023-10-13T01:52:10;17.10;99.90
26103;DHT22;69760;49.380;8.998;2023-10-13T01:54:44;17.10;99.90
26103;DHT22;69760;49.380;8.998;2023-10-13T01:57:11;17.00;99.90
26103;DHT22;69760;49.380;8.998;2023-10-13T01:59:52;17.00;99.90
26103;DHT22;69760;49.380;8.998;2023-10-13T02:02:17;17.00;99.90
26103;DHT22;69760;49.380;8.998;2023-10-13T02:05:03;17.00;99.90
26103;DHT22;69760;49.380;8.998;2023-10-13T02:07:29;16.90;99.90
26103;DHT22;69760;49.380;8.998;2023-10-13T02:09:56;16.90;99.90
26103;DHT22;69760;49.380;8.998;2023-10-13T02:12:21;16.80;99.90
26103;DHT22;69760;49.380;8.998;2023-10-13T02:15:09;16.80;99.90
26103;DHT22;69760;49.380;8.998;2023-10-13T02:17:40;16.80;99.90
26103;DHT22;69760;49.380;8.998;2023-10-13T02:20:10;16.70;99.90
26103;DHT22;69760;49.380;8.998;2023-10-13T02:22:42;16.70;99.90
26103;DHT22;69760;49.380;8.998;2023-10-13T02:25:18;16.70;99.90
26103;DHT22;69760;49.380;8.998;2023-10-13T02:28:04;16.70;99.90
26103;DHT22;69760;49.380;8.998;2023-10-13T02:30:43;16.70;99.90
26103;DHT22;69760;49.380;8.998;2023-10-13T02:33:14;16.70;99.90
26103;DHT22;69760;49.380;8.998;2023-10-13T02:35:44;16.70;99.90
26103;DHT22;69760;49.380;8.998;2023-10-13T02:38:19;16.70;99.90
26103;DHT22;69760;49.380;8.998;2023-10-13T02:41:01;16.60;99.90
26103;DHT22;69760;49.380;8.998;2023-10-13T02:43:36;16.60;99.90
26103;DHT22;69760;49.380;8.998;2023-10-13T02:46:03;16.60;99.90
26103;DHT22;69760;49.380;8.998;2023-10-13T02:48:29;16.60;99.90
26103;DHT22;69760;49.380;8.998;2023-10-13T02:51:12;16.50;99.90
26103;DHT22;69760;49.380;8.998;2023-10-13T02:53:42;16.50;99.90
26103;DHT22;69760;49.380;8.998;2023-10-13T02:56:07;16.50;99.90
26103;DHT22;69760;49.380;8.998;2023-10-13T02:58:33;16.40;99.90
26103;DHT22;69760;49.380;8.998;2023-10-13T03:01:06;16.40;99.90
26103;DHT22;69760;49.380;8.998;2023-10-13T03:03:54;16.40;99.90
26103;DHT22;69760;49.380;8.998;2023-10-13T03:06:22;16.40;99.90
26103;DHT22;69760;49.380;8.998;2023-10-13T03:08:58;16.30;99.90
26103;DHT22;69760;49.380;8.998;2023-10-13T03:11:39;16.30;99.90
26103;DHT22;69760;49.380;8.998;2023-10-13T03:14:09;16.30;99.90
26103;DHT22;69760;49.380;8.998;2023-10-13T03:16:41;16.30;99.90
26103;DHT22;69760;49.380;8.998;2023-10-13T03:19:07;16.30;99.90
26103;DHT22;69760;49.380;8.998;2023-10-13T03:21:34;16.30;99.90
26103;DHT22;69760;49.380;8.998;2023-10-13T03:24:02;16.30;99.90
26103;DHT22;69760;49.380;8.998;2023-10-13T03:26:32;16.30;99.90
26103;DHT22;69760;49.380;8.998;2023-10-13T03:29:02;16.40;99.90
26103;DHT22;69760;49.380;8.998;2023-10-13T03:31:30;16.30;99.90
26103;DHT22;69760;49.380;8.998;2023-10-13T03:34:03;16.30;99.90
26103;DHT22;69760;49.380;8.998;2023-10-13T03:36:29;16.20;99.90
26103;DHT22;69760;49.380;8.998;2023-10-13T03:39:13;16.20;99.90
26103;DHT22;69760;49.380;8.998;2023-10-13T03:41:39;16.20;99.90
26103;DHT22;69760;49.380;8.998;2023-10-13T03:44:09;16.20;99.90
26103;DHT22;69760;49.380;8.998;2023-10-13T03:46:40;16.20;99.90
26103;DHT22;69760;49.380;8.998;2023-10-13T03:49:10;16.30;99.90
26103;DHT22;69760;49.380;8.998;2023-10-13T03:51:41;16.20;99.90
26103;DHT22;69760;49.380;8.998;2023-10-13T03:54:08;16.30;99.90
26103;DHT22;69760;49.380;8.998;2023-10-13T03:56:34;16.30;99.90
26103;DHT22;69760;49.380;8.998;2023-10-13T03:59:07;16.30;99.90
26103;DHT22;69760;49.380;8.998;2023-10-13T04:01:43;16.30;99.90
26103;DHT22;69760;49.380;8.998;2023-10-13T04:04:09;16.30;99.90
26103;DHT22;69760;49.380;8.998;2023-10-13T04:06:37;16.40;99.90
26103;DHT22;69760;49.380;8.998;2023-10-13T04:12:00;16.40;99.90
26103;DHT22;69760;49.380;8.998;2023-10-13T04:14:33;16.40;99.90
26103;DHT22;69760;49.380;8.998;2023-10-13T04:17:18;16.40;99.90
26103;DHT22;69760;49.380;8.998;2023-10-13T04:19:59;16.40;99.90
26103;DHT22;69760;49.380;8.998;2023-10-13T04:22:38;16.40;99.90
26103;DHT22;69760;49.380;8.998;2023-10-13T04:25:16;16.40;99.90
26103;DHT22;69760;49.380;8.998;2023-10-13T04:28:04;16.40;99.90
26103;DHT22;69760;49.380;8.998;2023-10-13T04:30:44;16.30;99.90
26103;DHT22;69760;49.380;8.998;2023-10-13T04:33:29;16.30;99.90
26103;DHT22;69760;49.380;8.998;2023-10-13T04:36:11;16.30;99.90
26103;DHT22;69760;49.380;8.998;2023-10-13T04:38:43;16.20;99.90
26103;DHT22;69760;49.380;8.998;2023-10-13T04:41:30;16.20;99.90
26103;DHT22;69760;49.380;8.998;2023-10-13T04:44:22;16.10;99.90
26103;DHT22;69760;49.380;8.998;2023-10-13T04:47:06;16.10;99.90
26103;DHT22;69760;49.380;8.998;2023-10-13T04:49:39;16.10;99.90
26103;DHT22;69760;49.380;8.998;2023-10-13T04:52:08;16.00;99.90
26103;DHT22;69760;49.380;8.998;2023-10-13T04:54:35;16.10;99.90
26103;DHT22;69760;49.380;8.998;2023-10-13T05:00:04;16.10;99.90
26103;DHT22;69760;49.380;8.998;2023-10-13T05:02:40;16.00;99.90
26103;DHT22;69760;49.380;8.998;2023-10-13T05:07:32;16.00;99.90
26103;DHT22;69760;49.380;8.998;2023-10-13T05:10:17;16.00;99.90
26103;DHT22;69760;49.380;8.998;2023-10-13T05:13:01;16.00;99.90
26103;DHT22;69760;49.380;8.998;2023-10-13T05:15:51;16.00;99.90
26103;DHT22;69760;49.380;8.998;2023-10-13T05:18:36;15.90;99.90
26103;DHT22;69760;49.380;8.998;2023-10-13T05:21:21;15.90;99.90
26103;DHT22;69760;49.380;8.998;2023-10-13T05:24:05;15.90;99.90
26103;DHT22;69760;49.380;8.998;2023-10-13T05:26:50;15.90;99.90
26103;DHT22;69760;49.380;8.998;2023-10-13T05:29:38;15.90;99.90
26103;DHT22;69760;49.380;8.998;2023-10-13T05:32:22;15.90;99.90
26103;DHT22;69760;49.380;8.998;2023-10-13T05:35:09;15.90;99.90
26103;DHT22;69760;49.380;8.998;2023-10-13T05:37:53;15.80;99.90
